M88 weather

CLOSED Cornelia Fort Airpark
Nashville, Tennessee, United States

Public forecast

Using degrees Fahrenheit for public forecast. Weather courtesy of forecast.io.

METAR (pilot weather report)

Closest report is Nashville International Airport, 4.1 nm (7.6 km) SSE. Retrieved 2019/05/20 16:53 UTC (1 hour ago):

KBNA 201653Z 26003KT 10SM FEW040 FEW250 28/14 A3007 RMK AO2 SLP176 T02780139

TAF (pilot weather forecast)

Closest forecast is Nashville International Airport, 4.1 nm (7.6 km) SSE. Retrieved 2019/05/20 12:27 UTC (5 hours ago):

TAF KBNA 201124Z 2012/2112 35005KT P6SM FEW250